メインページ
METAR-TAF:

METAR-TAF

空港 :

サスカトゥーン・ジョン・G・ディーフェンベーカー国際空港

サスカトゥーン, サスカチュワン州, カナダ

緯度: 52-10N, 経度: 106-41W, 海抜: 501m

現時点の気象観測

当レポートは22分前の14:00(UTC)に作成
南東の風 7kt
気温 21°C
湿度 64%
気圧 1016 hPa
視程: 24.1km
高度3000ftの雲はほとんどない
高度15000ftの雲は散在している
高度30000ftの千切れ雲あり

METAR: CYXE 201400Z 13007KT 15SM FEW030 SCT150 BKN300 21/14 A3001 RMK CU1AC3CI3 SLP163 DENSITY ALT 2600FT

時間: 08:22 (14:22 UTC)

予報

当レポートは2時間44分前の11:38(UTC)に作成
予報は20日の 12時(UTC)から 21日の 12時(UTC)まで有効
南/南東の風 8kt
視程: 10km
高度12000ftの雲はほとんどない
高度30000ftの千切れ雲あり
20日の 12時(UTC)から 20日の 16時(UTC)まで一時的に
視程: 10km
高度12000ftの千切れ雲あり
高度32000ftの千切れ雲あり
近辺でにわか雨
20日の 1600時(UTC)から
南/南東の風 12kt、最大22ktの突風を伴う
視程: 10km
高度12000ftの雲は散在している
高度22000ftの雲は散在している
20日の 20時(UTC)から 20日の 22時(UTC)まで徐々に
南/南東の風 20kt、最大30ktの突風を伴う
21日の 0300時(UTC)から
南/南東の風 15kt
視程: 10km
高度9000ftの千切れ雲あり
21日の 03時(UTC)から 21日の 06時(UTC)まで一時的に
視程: 10km
高度8000ftの千切れ雲あり, 積乱雲.
弱いにわか雨, 近辺で激しい雷雨
21日の 0800時(UTC)から
南東の風 15kt
視程: 10km
高度10000ftの雲はほとんどない
高度22000ftの雲は散在している

TAF: CYXE 201138Z 2012/2112 15008KT P6SM FEW120 BKN300 TEMPO 2012/2016 P6SM VCSH BKN120 BKN320 FM201600 15012G22KT P6SM SCT120 SCT220 BECMG 2020/2022 15020G30KT FM210300 15015KT P6SM BKN090 TEMPO 2103/2106 P6SM -SHRA VCTS BKN080CB FM210800 13015KT P6SM FEW100 SCT220 RMK NXT FCST BY 201800Z

4,000以上の空港の気象観測と天気予報(METAR報とTAF報)

利用可能な観測所は地図上に黄色い丸と赤い丸で示す。

丸の上にカーソルを重ねると観測所名を参照できる。

次にクリックすると気象観測と天気予報を参照できる。

マップの切り替え:黒色「×」印の緑ボタンをクリックして拡大、「-」印の緑ボタンをクリックして縮小、緑色の三角印をクリックして隣りの地図に切り替え


METAR-TAF: